sensor_id;sensor_type;location;lat;lon;timestamp;P1;durP1;ratioP1;P2;durP2;ratioP2
13849;SDS011;6995;52.618;13.488;2023-04-06T00:01:56;28.57;;;26.57;;
13849;SDS011;6995;52.618;13.488;2023-04-06T00:04:21;29.93;;;28.00;;
13849;SDS011;6995;52.618;13.488;2023-04-06T00:06:47;29.00;;;27.20;;
13849;SDS011;6995;52.618;13.488;2023-04-06T00:09:13;27.03;;;25.30;;
13849;SDS011;6995;52.618;13.488;2023-04-06T00:11:38;29.50;;;27.43;;
13849;SDS011;6995;52.618;13.488;2023-04-06T00:14:04;28.97;;;26.80;;
13849;SDS011;6995;52.618;13.488;2023-04-06T00:16:29;26.87;;;25.13;;
13849;SDS011;6995;52.618;13.488;2023-04-06T00:18:55;28.57;;;26.77;;
13849;SDS011;6995;52.618;13.488;2023-04-06T00:21:21;28.73;;;27.00;;
13849;SDS011;6995;52.618;13.488;2023-04-06T00:23:47;29.00;;;27.00;;
13849;SDS011;6995;52.618;13.488;2023-04-06T00:26:12;31.43;;;29.23;;
13849;SDS011;6995;52.618;13.488;2023-04-06T00:28:38;31.90;;;29.90;;
13849;SDS011;6995;52.618;13.488;2023-04-06T00:31:04;29.10;;;27.30;;
13849;SDS011;6995;52.618;13.488;2023-04-06T00:33:30;30.93;;;28.77;;
13849;SDS011;6995;52.618;13.488;2023-04-06T00:35:55;29.83;;;28.00;;
13849;SDS011;6995;52.618;13.488;2023-04-06T00:38:21;32.93;;;30.63;;
13849;SDS011;6995;52.618;13.488;2023-04-06T00:40:47;31.00;;;29.03;;
13849;SDS011;6995;52.618;13.488;2023-04-06T00:43:13;30.47;;;28.27;;
13849;SDS011;6995;52.618;13.488;2023-04-06T00:45:39;28.37;;;26.57;;
13849;SDS011;6995;52.618;13.488;2023-04-06T00:48:06;32.60;;;30.43;;
13849;SDS011;6995;52.618;13.488;2023-04-06T00:50:32;33.00;;;30.90;;
13849;SDS011;6995;52.618;13.488;2023-04-06T00:52:59;30.27;;;28.17;;
13849;SDS011;6995;52.618;13.488;2023-04-06T00:55:28;32.57;;;30.27;;
13849;SDS011;6995;52.618;13.488;2023-04-06T00:57:54;31.80;;;29.47;;
13849;SDS011;6995;52.618;13.488;2023-04-06T01:00:23;33.43;;;30.93;;
13849;SDS011;6995;52.618;13.488;2023-04-06T01:02:49;29.50;;;27.30;;
13849;SDS011;6995;52.618;13.488;2023-04-06T01:05:15;32.27;;;30.17;;
13849;SDS011;6995;52.618;13.488;2023-04-06T01:07:43;30.73;;;28.73;;
13849;SDS011;6995;52.618;13.488;2023-04-06T01:10:08;34.03;;;31.53;;
13849;SDS011;6995;52.618;13.488;2023-04-06T01:12:35;33.50;;;31.23;;
13849;SDS011;6995;52.618;13.488;2023-04-06T01:15:02;32.40;;;30.30;;
13849;SDS011;6995;52.618;13.488;2023-04-06T01:17:29;32.77;;;30.60;;
13849;SDS011;6995;52.618;13.488;2023-04-06T01:19:54;33.20;;;30.77;;
13849;SDS011;6995;52.618;13.488;2023-04-06T01:22:20;32.93;;;30.83;;
13849;SDS011;6995;52.618;13.488;2023-04-06T01:24:46;31.97;;;29.93;;
13849;SDS011;6995;52.618;13.488;2023-04-06T01:27:12;31.23;;;29.03;;
13849;SDS011;6995;52.618;13.488;2023-04-06T01:29:38;37.33;;;34.73;;
13849;SDS011;6995;52.618;13.488;2023-04-06T01:32:06;31.23;;;28.93;;
13849;SDS011;6995;52.618;13.488;2023-04-06T01:34:35;33.93;;;31.43;;
13849;SDS011;6995;52.618;13.488;2023-04-06T01:37:01;28.40;;;26.50;;
13849;SDS011;6995;52.618;13.488;2023-04-06T01:39:26;29.63;;;27.53;;
13849;SDS011;6995;52.618;13.488;2023-04-06T01:42:01;30.33;;;28.40;;
13849;SDS011;6995;52.618;13.488;2023-04-06T01:44:33;31.17;;;29.10;;
13849;SDS011;6995;52.618;13.488;2023-04-06T01:46:58;31.97;;;29.77;;
13849;SDS011;6995;52.618;13.488;2023-04-06T01:49:24;32.83;;;30.67;;
13849;SDS011;6995;52.618;13.488;2023-04-06T01:51:50;32.50;;;30.20;;
13849;SDS011;6995;52.618;13.488;2023-04-06T01:54:17;29.60;;;27.73;;
13849;SDS011;6995;52.618;13.488;2023-04-06T01:56:42;28.03;;;26.23;;
13849;SDS011;6995;52.618;13.488;2023-04-06T01:59:08;29.90;;;28.00;;
13849;SDS011;6995;52.618;13.488;2023-04-06T02:01:34;28.20;;;26.33;;
13849;SDS011;6995;52.618;13.488;2023-04-06T02:04:00;31.60;;;29.27;;
13849;SDS011;6995;52.618;13.488;2023-04-06T02:06:25;30.10;;;28.20;;
13849;SDS011;6995;52.618;13.488;2023-04-06T02:08:51;27.53;;;25.63;;
13849;SDS011;6995;52.618;13.488;2023-04-06T02:11:17;31.73;;;29.30;;
13849;SDS011;6995;52.618;13.488;2023-04-06T02:13:43;31.07;;;28.97;;
13849;SDS011;6995;52.618;13.488;2023-04-06T02:16:08;31.53;;;29.33;;
13849;SDS011;6995;52.618;13.488;2023-04-06T02:18:34;31.60;;;29.47;;
13849;SDS011;6995;52.618;13.488;2023-04-06T02:21:00;27.43;;;25.83;;
13849;SDS011;6995;52.618;13.488;2023-04-06T02:23:25;27.83;;;26.03;;
13849;SDS011;6995;52.618;13.488;2023-04-06T02:25:51;28.20;;;26.00;;
13849;SDS011;6995;52.618;13.488;2023-04-06T02:28:17;29.13;;;27.23;;
13849;SDS011;6995;52.618;13.488;2023-04-06T02:30:43;27.97;;;26.17;;
13849;SDS011;6995;52.618;13.488;2023-04-06T02:33:09;27.83;;;26.13;;
13849;SDS011;6995;52.618;13.488;2023-04-06T02:35:34;27.30;;;25.30;;
13849;SDS011;6995;52.618;13.488;2023-04-06T02:38:00;29.47;;;27.57;;
13849;SDS011;6995;52.618;13.488;2023-04-06T02:40:26;29.57;;;27.73;;
13849;SDS011;6995;52.618;13.488;2023-04-06T02:42:51;29.87;;;27.77;;
13849;SDS011;6995;52.618;13.488;2023-04-06T02:45:18;28.63;;;26.83;;
13849;SDS011;6995;52.618;13.488;2023-04-06T02:47:44;27.93;;;26.00;;
13849;SDS011;6995;52.618;13.488;2023-04-06T02:50:10;34.43;;;32.17;;
13849;SDS011;6995;52.618;13.488;2023-04-06T02:52:35;30.13;;;28.23;;
13849;SDS011;6995;52.618;13.488;2023-04-06T02:55:01;33.53;;;31.33;;
13849;SDS011;6995;52.618;13.488;2023-04-06T02:57:27;32.37;;;30.03;;
13849;SDS011;6995;52.618;13.488;2023-04-06T02:59:53;30.33;;;28.43;;
13849;SDS011;6995;52.618;13.488;2023-04-06T03:02:18;30.53;;;28.43;;
13849;SDS011;6995;52.618;13.488;2023-04-06T03:04:44;29.97;;;28.07;;
13849;SDS011;6995;52.618;13.488;2023-04-06T03:07:10;30.70;;;28.57;;
13849;SDS011;6995;52.618;13.488;2023-04-06T03:09:39;30.07;;;27.80;;
13849;SDS011;6995;52.618;13.488;2023-04-06T03:12:04;28.10;;;25.90;;
13849;SDS011;6995;52.618;13.488;2023-04-06T03:14:30;29.67;;;27.73;;
13849;SDS011;6995;52.618;13.488;2023-04-06T03:16:56;30.37;;;28.37;;
13849;SDS011;6995;52.618;13.488;2023-04-06T03:19:22;29.87;;;27.67;;
13849;SDS011;6995;52.618;13.488;2023-04-06T03:21:47;33.90;;;31.70;;
13849;SDS011;6995;52.618;13.488;2023-04-06T03:24:13;28.63;;;26.47;;
13849;SDS011;6995;52.618;13.488;2023-04-06T03:26:39;32.73;;;30.70;;
13849;SDS011;6995;52.618;13.488;2023-04-06T03:29:05;29.57;;;27.37;;
13849;SDS011;6995;52.618;13.488;2023-04-06T03:31:30;35.97;;;33.60;;
13849;SDS011;6995;52.618;13.488;2023-04-06T03:33:56;35.23;;;32.87;;
13849;SDS011;6995;52.618;13.488;2023-04-06T03:36:22;36.30;;;34.07;;
13849;SDS011;6995;52.618;13.488;2023-04-06T03:38:47;39.20;;;36.63;;
13849;SDS011;6995;52.618;13.488;2023-04-06T03:41:18;38.97;;;36.37;;
13849;SDS011;6995;52.618;13.488;2023-04-06T03:43:44;32.53;;;30.33;;
13849;SDS011;6995;52.618;13.488;2023-04-06T03:46:10;34.97;;;32.53;;
13849;SDS011;6995;52.618;13.488;2023-04-06T03:48:36;32.73;;;30.33;;
13849;SDS011;6995;52.618;13.488;2023-04-06T03:51:06;33.77;;;31.53;;
13849;SDS011;6995;52.618;13.488;2023-04-06T03:53:31;30.43;;;27.97;;
13849;SDS011;6995;52.618;13.488;2023-04-06T03:55:57;37.00;;;34.40;;
13849;SDS011;6995;52.618;13.488;2023-04-06T03:58:23;35.17;;;32.87;;
13849;SDS011;6995;52.618;13.488;2023-04-06T04:00:48;37.13;;;34.53;;
13849;SDS011;6995;52.618;13.488;2023-04-06T04:03:14;33.77;;;31.37;;
13849;SDS011;6995;52.618;13.488;2023-04-06T04:05:40;36.17;;;33.67;;
13849;SDS011;6995;52.618;13.488;2023-04-06T04:08:07;31.93;;;29.47;;
13849;SDS011;6995;52.618;13.488;2023-04-06T04:10:33;32.97;;;30.37;;
13849;SDS011;6995;52.618;13.488;2023-04-06T04:12:58;28.53;;;26.53;;
13849;SDS011;6995;52.618;13.488;2023-04-06T04:15:24;34.40;;;31.83;;
13849;SDS011;6995;52.618;13.488;2023-04-06T04:17:50;33.33;;;31.13;;
13849;SDS011;6995;52.618;13.488;2023-04-06T04:20:16;30.53;;;28.27;;
13849;SDS011;6995;52.618;13.488;2023-04-06T04:22:42;34.43;;;32.00;;
13849;SDS011;6995;52.618;13.488;2023-04-06T04:25:08;34.17;;;31.67;;
13849;SDS011;6995;52.618;13.488;2023-04-06T04:27:34;34.43;;;31.97;;
13849;SDS011;6995;52.618;13.488;2023-04-06T04:30:00;33.90;;;31.50;;
13849;SDS011;6995;52.618;13.488;2023-04-06T04:32:26;33.47;;;31.30;;
13849;SDS011;6995;52.618;13.488;2023-04-06T04:34:52;33.70;;;30.90;;
13849;SDS011;6995;52.618;13.488;2023-04-06T04:37:19;32.87;;;30.60;;
13849;SDS011;6995;52.618;13.488;2023-04-06T04:39:44;33.60;;;31.13;;
13849;SDS011;6995;52.618;13.488;2023-04-06T04:42:10;38.47;;;35.43;;
13849;SDS011;6995;52.618;13.488;2023-04-06T04:44:36;32.17;;;30.03;;
13849;SDS011;6995;52.618;13.488;2023-04-06T04:47:02;31.37;;;29.30;;
13849;SDS011;6995;52.618;13.488;2023-04-06T04:49:27;37.07;;;34.63;;
13849;SDS011;6995;52.618;13.488;2023-04-06T04:51:53;32.00;;;28.77;;
13849;SDS011;6995;52.618;13.488;2023-04-06T04:54:19;32.17;;;30.03;;
13849;SDS011;6995;52.618;13.488;2023-04-06T04:59:44;36.27;;;33.77;;
13849;SDS011;6995;52.618;13.488;2023-04-06T05:02:10;32.00;;;29.70;;
13849;SDS011;6995;52.618;13.488;2023-04-06T05:04:36;33.20;;;30.67;;
13849;SDS011;6995;52.618;13.488;2023-04-06T05:07:05;36.53;;;34.20;;
13849;SDS011;6995;52.618;13.488;2023-04-06T05:09:32;31.83;;;29.63;;
13849;SDS011;6995;52.618;13.488;2023-04-06T05:11:58;33.17;;;30.87;;
13849;SDS011;6995;52.618;13.488;2023-04-06T05:14:25;28.27;;;26.17;;
13849;SDS011;6995;52.618;13.488;2023-04-06T05:16:51;34.00;;;31.60;;
13849;SDS011;6995;52.618;13.488;2023-04-06T05:19:20;30.73;;;28.57;;
13849;SDS011;6995;52.618;13.488;2023-04-06T05:21:46;30.90;;;28.63;;
13849;SDS011;6995;52.618;13.488;2023-04-06T05:24:11;30.93;;;28.53;;
13849;SDS011;6995;52.618;13.488;2023-04-06T05:26:37;33.30;;;31.10;;
13849;SDS011;6995;52.618;13.488;2023-04-06T05:29:03;41.30;;;38.47;;
13849;SDS011;6995;52.618;13.488;2023-04-06T05:31:29;36.90;;;34.17;;
13849;SDS011;6995;52.618;13.488;2023-04-06T05:33:55;37.20;;;34.57;;
13849;SDS011;6995;52.618;13.488;2023-04-06T05:36:21;33.50;;;30.93;;
13849;SDS011;6995;52.618;13.488;2023-04-06T05:38:47;35.00;;;32.13;;
13849;SDS011;6995;52.618;13.488;2023-04-06T05:41:13;29.00;;;26.87;;
13849;SDS011;6995;52.618;13.488;2023-04-06T05:43:38;30.40;;;28.00;;
13849;SDS011;6995;52.618;13.488;2023-04-06T05:46:04;33.90;;;31.60;;
13849;SDS011;6995;52.618;13.488;2023-04-06T05:48:30;31.43;;;28.93;;
13849;SDS011;6995;52.618;13.488;2023-04-06T05:50:55;33.97;;;31.67;;
13849;SDS011;6995;52.618;13.488;2023-04-06T05:56:49;33.37;;;31.07;;
13849;SDS011;6995;52.618;13.488;2023-04-06T05:59:15;33.30;;;30.97;;
13849;SDS011;6995;52.618;13.488;2023-04-06T06:01:41;28.40;;;26.43;;
13849;SDS011;6995;52.618;13.488;2023-04-06T06:04:07;32.70;;;30.17;;
13849;SDS011;6995;52.618;13.488;2023-04-06T06:06:33;30.67;;;28.53;;
13849;SDS011;6995;52.618;13.488;2023-04-06T06:09:02;31.53;;;29.37;;
13849;SDS011;6995;52.618;13.488;2023-04-06T06:11:28;30.63;;;28.47;;
13849;SDS011;6995;52.618;13.488;2023-04-06T06:13:55;32.13;;;29.93;;
13849;SDS011;6995;52.618;13.488;2023-04-06T06:16:20;31.80;;;29.50;;
13849;SDS011;6995;52.618;13.488;2023-04-06T06:18:47;32.93;;;30.47;;
13849;SDS011;6995;52.618;13.488;2023-04-06T06:21:12;29.53;;;27.53;;
13849;SDS011;6995;52.618;13.488;2023-04-06T06:23:42;30.07;;;27.73;;
13849;SDS011;6995;52.618;13.488;2023-04-06T06:26:08;30.10;;;27.33;;
13849;SDS011;6995;52.618;13.488;2023-04-06T06:28:33;29.23;;;26.97;;
13849;SDS011;6995;52.618;13.488;2023-04-06T06:30:59;31.97;;;29.77;;
13849;SDS011;6995;52.618;13.488;2023-04-06T06:33:26;28.33;;;26.03;;
13849;SDS011;6995;52.618;13.488;2023-04-06T06:35:52;29.10;;;27.20;;
13849;SDS011;6995;52.618;13.488;2023-04-06T06:38:18;33.00;;;30.67;;
13849;SDS011;6995;52.618;13.488;2023-04-06T06:40:44;31.00;;;28.90;;
13849;SDS011;6995;52.618;13.488;2023-04-06T06:43:11;32.33;;;29.93;;
13849;SDS011;6995;52.618;13.488;2023-04-06T06:45:36;31.10;;;28.83;;
13849;SDS011;6995;52.618;13.488;2023-04-06T06:48:02;29.63;;;27.17;;
13849;SDS011;6995;52.618;13.488;2023-04-06T06:50:28;29.97;;;27.97;;
13849;SDS011;6995;52.618;13.488;2023-04-06T06:52:54;31.93;;;30.03;;
13849;SDS011;6995;52.618;13.488;2023-04-06T06:55:20;32.77;;;30.07;;
13849;SDS011;6995;52.618;13.488;2023-04-06T06:57:46;29.53;;;27.50;;
13849;SDS011;6995;52.618;13.488;2023-04-06T07:00:12;33.70;;;31.60;;
13849;SDS011;6995;52.618;13.488;2023-04-06T07:02:39;29.80;;;28.00;;
13849;SDS011;6995;52.618;13.488;2023-04-06T07:05:05;30.73;;;28.87;;
13849;SDS011;6995;52.618;13.488;2023-04-06T07:07:32;28.00;;;25.87;;
13849;SDS011;6995;52.618;13.488;2023-04-06T07:10:00;26.10;;;24.43;;
13849;SDS011;6995;52.618;13.488;2023-04-06T07:12:26;29.70;;;27.90;;
13849;SDS011;6995;52.618;13.488;2023-04-06T07:14:52;28.33;;;26.40;;
13849;SDS011;6995;52.618;13.488;2023-04-06T07:17:18;30.33;;;28.43;;
13849;SDS011;6995;52.618;13.488;2023-04-06T07:19:44;26.47;;;24.77;;
13849;SDS011;6995;52.618;13.488;2023-04-06T07:22:10;31.07;;;27.77;;
13849;SDS011;6995;52.618;13.488;2023-04-06T07:24:39;28.43;;;26.67;;
13849;SDS011;6995;52.618;13.488;2023-04-06T07:27:05;28.27;;;26.17;;
13849;SDS011;6995;52.618;13.488;2023-04-06T07:29:32;30.70;;;28.80;;
13849;SDS011;6995;52.618;13.488;2023-04-06T07:31:57;27.37;;;25.00;;
13849;SDS011;6995;52.618;13.488;2023-04-06T07:34:23;27.63;;;26.03;;
13849;SDS011;6995;52.618;13.488;2023-04-06T07:36:49;25.03;;;23.43;;
13849;SDS011;6995;52.618;13.488;2023-04-06T07:39:15;27.00;;;25.30;;
13849;SDS011;6995;52.618;13.488;2023-04-06T07:41:40;28.17;;;26.50;;
13849;SDS011;6995;52.618;13.488;2023-04-06T07:44:06;25.63;;;23.97;;
13849;SDS011;6995;52.618;13.488;2023-04-06T07:46:32;28.30;;;26.30;;
13849;SDS011;6995;52.618;13.488;2023-04-06T07:48:59;30.47;;;28.43;;
13849;SDS011;6995;52.618;13.488;2023-04-06T07:51:24;29.43;;;27.67;;
13849;SDS011;6995;52.618;13.488;2023-04-06T07:53:53;26.63;;;25.03;;
13849;SDS011;6995;52.618;13.488;2023-04-06T07:56:19;26.87;;;25.27;;
13849;SDS011;6995;52.618;13.488;2023-04-06T07:58:46;27.20;;;25.67;;
13849;SDS011;6995;52.618;13.488;2023-04-06T08:01:11;26.33;;;24.73;;
13849;SDS011;6995;52.618;13.488;2023-04-06T08:03:37;31.50;;;29.47;;
13849;SDS011;6995;52.618;13.488;2023-04-06T08:06:03;27.40;;;25.70;;
13849;SDS011;6995;52.618;13.488;2023-04-06T08:08:30;26.53;;;24.97;;
13849;SDS011;6995;52.618;13.488;2023-04-06T08:10:56;24.53;;;22.70;;
13849;SDS011;6995;52.618;13.488;2023-04-06T08:13:22;25.10;;;23.73;;
13849;SDS011;6995;52.618;13.488;2023-04-06T08:15:48;25.63;;;24.10;;
13849;SDS011;6995;52.618;13.488;2023-04-06T08:18:14;24.70;;;23.30;;
13849;SDS011;6995;52.618;13.488;2023-04-06T08:20:40;26.67;;;24.97;;
13849;SDS011;6995;52.618;13.488;2023-04-06T08:23:05;23.87;;;22.37;;
13849;SDS011;6995;52.618;13.488;2023-04-06T08:25:35;26.73;;;24.93;;
13849;SDS011;6995;52.618;13.488;2023-04-06T08:28:01;24.97;;;23.47;;
13849;SDS011;6995;52.618;13.488;2023-04-06T08:30:27;24.77;;;23.23;;
13849;SDS011;6995;52.618;13.488;2023-04-06T08:32:56;24.40;;;23.07;;
13849;SDS011;6995;52.618;13.488;2023-04-06T08:35:22;24.90;;;23.47;;
13849;SDS011;6995;52.618;13.488;2023-04-06T08:37:48;23.70;;;22.43;;
13849;SDS011;6995;52.618;13.488;2023-04-06T08:40:14;24.70;;;23.07;;
13849;SDS011;6995;52.618;13.488;2023-04-06T08:42:40;23.03;;;21.53;;
13849;SDS011;6995;52.618;13.488;2023-04-06T08:45:09;25.40;;;23.70;;
13849;SDS011;6995;52.618;13.488;2023-04-06T08:47:36;22.37;;;21.17;;
13849;SDS011;6995;52.618;13.488;2023-04-06T08:50:03;25.90;;;24.53;;
13849;SDS011;6995;52.618;13.488;2023-04-06T08:52:30;26.53;;;25.13;;
13849;SDS011;6995;52.618;13.488;2023-04-06T08:54:57;26.03;;;24.30;;
13849;SDS011;6995;52.618;13.488;2023-04-06T08:57:23;26.17;;;24.87;;
13849;SDS011;6995;52.618;13.488;2023-04-06T08:59:51;26.07;;;24.40;;
13849;SDS011;6995;52.618;13.488;2023-04-06T09:02:17;24.47;;;23.17;;
13849;SDS011;6995;52.618;13.488;2023-04-06T09:04:52;23.00;;;21.83;;
13849;SDS011;6995;52.618;13.488;2023-04-06T09:07:19;24.30;;;22.80;;
13849;SDS011;6995;52.618;13.488;2023-04-06T09:09:46;55.57;;;52.87;;
13849;SDS011;6995;52.618;13.488;2023-04-06T09:14:49;23.90;;;22.30;;
13849;SDS011;6995;52.618;13.488;2023-04-06T09:17:22;25.37;;;24.07;;
13849;SDS011;6995;52.618;13.488;2023-04-06T09:19:52;25.10;;;23.70;;
13849;SDS011;6995;52.618;13.488;2023-04-06T09:22:18;23.23;;;22.03;;
13849;SDS011;6995;52.618;13.488;2023-04-06T09:24:46;25.30;;;23.90;;
13849;SDS011;6995;52.618;13.488;2023-04-06T09:27:13;23.77;;;22.57;;
13849;SDS011;6995;52.618;13.488;2023-04-06T09:29:40;24.57;;;23.27;;
13849;SDS011;6995;52.618;13.488;2023-04-06T09:32:07;24.70;;;23.00;;
13849;SDS011;6995;52.618;13.488;2023-04-06T09:34:36;25.23;;;23.57;;
13849;SDS011;6995;52.618;13.488;2023-04-06T09:37:14;24.63;;;23.27;;
13849;SDS011;6995;52.618;13.488;2023-04-06T09:39:41;22.23;;;21.00;;
13849;SDS011;6995;52.618;13.488;2023-04-06T09:42:07;24.17;;;23.07;;
13849;SDS011;6995;52.618;13.488;2023-04-06T09:44:33;23.00;;;21.77;;
13849;SDS011;6995;52.618;13.488;2023-04-06T09:47:01;26.63;;;24.93;;
13849;SDS011;6995;52.618;13.488;2023-04-06T09:49:31;21.33;;;20.20;;
13849;SDS011;6995;52.618;13.488;2023-04-06T09:52:02;22.40;;;21.23;;
13849;SDS011;6995;52.618;13.488;2023-04-06T09:54:29;23.00;;;21.83;;
13849;SDS011;6995;52.618;13.488;2023-04-06T10:00:03;21.77;;;20.67;;
13849;SDS011;6995;52.618;13.488;2023-04-06T10:02:39;22.90;;;21.70;;
13849;SDS011;6995;52.618;13.488;2023-04-06T10:07:42;20.83;;;19.73;;
13849;SDS011;6995;52.618;13.488;2023-04-06T10:10:08;24.40;;;23.00;;
13849;SDS011;6995;52.618;13.488;2023-04-06T10:12:37;22.23;;;21.00;;
13849;SDS011;6995;52.618;13.488;2023-04-06T10:15:04;20.27;;;19.07;;
13849;SDS011;6995;52.618;13.488;2023-04-06T10:17:30;22.37;;;20.97;;
13849;SDS011;6995;52.618;13.488;2023-04-06T10:20:01;21.33;;;20.13;;
13849;SDS011;6995;52.618;13.488;2023-04-06T10:22:41;21.23;;;20.00;;
13849;SDS011;6995;52.618;13.488;2023-04-06T10:25:31;25.73;;;24.27;;
13849;SDS011;6995;52.618;13.488;2023-04-06T10:28:08;21.27;;;20.10;;
13849;SDS011;6995;52.618;13.488;2023-04-06T10:30:41;20.47;;;19.37;;
13849;SDS011;6995;52.618;13.488;2023-04-06T10:33:16;22.90;;;21.70;;
13849;SDS011;6995;52.618;13.488;2023-04-06T10:35:43;19.83;;;18.53;;
13849;SDS011;6995;52.618;13.488;2023-04-06T10:38:09;21.30;;;20.20;;
13849;SDS011;6995;52.618;13.488;2023-04-06T10:40:37;24.40;;;23.13;;
13849;SDS011;6995;52.618;13.488;2023-04-06T10:43:11;23.50;;;22.20;;
13849;SDS011;6995;52.618;13.488;2023-04-06T10:45:42;21.73;;;20.53;;
13849;SDS011;6995;52.618;13.488;2023-04-06T10:48:16;21.60;;;20.53;;
13849;SDS011;6995;52.618;13.488;2023-04-06T10:50:52;23.07;;;21.67;;
13849;SDS011;6995;52.618;13.488;2023-04-06T10:53:26;21.43;;;20.33;;
13849;SDS011;6995;52.618;13.488;2023-04-06T10:55:54;21.03;;;20.03;;
13849;SDS011;6995;52.618;13.488;2023-04-06T10:58:24;21.63;;;20.57;;
13849;SDS011;6995;52.618;13.488;2023-04-06T11:00:50;21.20;;;20.00;;
13849;SDS011;6995;52.618;13.488;2023-04-06T11:03:16;21.92;;;20.77;;
13849;SDS011;6995;52.618;13.488;2023-04-06T11:05:43;21.50;;;20.30;;
13849;SDS011;6995;52.618;13.488;2023-04-06T11:08:24;21.90;;;20.90;;
13849;SDS011;6995;52.618;13.488;2023-04-06T11:11:07;20.25;;;19.15;;
13849;SDS011;6995;52.618;13.488;2023-04-06T11:16:06;23.38;;;22.13;;
13849;SDS011;6995;52.618;13.488;2023-04-06T11:18:37;22.67;;;21.38;;
13849;SDS011;6995;52.618;13.488;2023-04-06T11:21:02;23.98;;;22.65;;
13849;SDS011;6995;52.618;13.488;2023-04-06T11:23:28;22.23;;;21.05;;
13849;SDS011;6995;52.618;13.488;2023-04-06T11:25:55;22.47;;;21.37;;
13849;SDS011;6995;52.618;13.488;2023-04-06T11:28:20;19.07;;;17.97;;
13849;SDS011;6995;52.618;13.488;2023-04-06T11:30:46;21.30;;;20.10;;
13849;SDS011;6995;52.618;13.488;2023-04-06T11:33:19;20.10;;;19.10;;
13849;SDS011;6995;52.618;13.488;2023-04-06T11:35:46;20.50;;;19.30;;
13849;SDS011;6995;52.618;13.488;2023-04-06T11:38:12;22.60;;;21.50;;
13849;SDS011;6995;52.618;13.488;2023-04-06T11:40:37;21.73;;;20.60;;
13849;SDS011;6995;52.618;13.488;2023-04-06T11:43:03;22.80;;;21.60;;
13849;SDS011;6995;52.618;13.488;2023-04-06T11:45:38;22.00;;;20.60;;
13849;SDS011;6995;52.618;13.488;2023-04-06T11:48:16;21.23;;;20.23;;
13849;SDS011;6995;52.618;13.488;2023-04-06T11:50:45;24.00;;;22.70;;
13849;SDS011;6995;52.618;13.488;2023-04-06T11:53:12;23.53;;;22.43;;
13849;SDS011;6995;52.618;13.488;2023-04-06T11:55:38;23.53;;;22.27;;
13849;SDS011;6995;52.618;13.488;2023-04-06T11:58:05;21.83;;;20.83;;
13849;SDS011;6995;52.618;13.488;2023-04-06T12:00:31;22.00;;;20.80;;
13849;SDS011;6995;52.618;13.488;2023-04-06T12:02:59;21.90;;;20.67;;
13849;SDS011;6995;52.618;13.488;2023-04-06T12:05:25;22.07;;;20.97;;
13849;SDS011;6995;52.618;13.488;2023-04-06T12:07:52;21.23;;;20.03;;
13849;SDS011;6995;52.618;13.488;2023-04-06T12:10:17;21.07;;;19.97;;
13849;SDS011;6995;52.618;13.488;2023-04-06T12:12:43;20.67;;;19.23;;
13849;SDS011;6995;52.618;13.488;2023-04-06T12:15:09;25.60;;;24.20;;
13849;SDS011;6995;52.618;13.488;2023-04-06T12:17:35;23.77;;;22.55;;
13849;SDS011;6995;52.618;13.488;2023-04-06T12:20:01;22.10;;;20.75;;
13849;SDS011;6995;52.618;13.488;2023-04-06T12:22:27;24.20;;;22.90;;
13849;SDS011;6995;52.618;13.488;2023-04-06T12:24:53;23.20;;;22.02;;
13849;SDS011;6995;52.618;13.488;2023-04-06T12:27:19;22.57;;;21.47;;
13849;SDS011;6995;52.618;13.488;2023-04-06T12:29:46;21.90;;;20.70;;
13849;SDS011;6995;52.618;13.488;2023-04-06T12:32:12;23.27;;;22.03;;
13849;SDS011;6995;52.618;13.488;2023-04-06T12:34:38;22.67;;;21.33;;
13849;SDS011;6995;52.618;13.488;2023-04-06T12:37:04;23.35;;;21.95;;
13849;SDS011;6995;52.618;13.488;2023-04-06T12:39:30;23.65;;;22.35;;
13849;SDS011;6995;52.618;13.488;2023-04-06T12:41:55;22.17;;;20.98;;
13849;SDS011;6995;52.618;13.488;2023-04-06T12:44:22;22.33;;;21.13;;
13849;SDS011;6995;52.618;13.488;2023-04-06T12:46:48;21.92;;;20.83;;
13849;SDS011;6995;52.618;13.488;2023-04-06T12:49:14;25.92;;;24.63;;
13849;SDS011;6995;52.618;13.488;2023-04-06T12:51:41;24.13;;;22.92;;
13849;SDS011;6995;52.618;13.488;2023-04-06T12:54:07;22.95;;;21.75;;
13849;SDS011;6995;52.618;13.488;2023-04-06T12:56:33;26.40;;;24.95;;
13849;SDS011;6995;52.618;13.488;2023-04-06T12:58:58;25.40;;;23.95;;
13849;SDS011;6995;52.618;13.488;2023-04-06T13:01:24;27.77;;;26.23;;
13849;SDS011;6995;52.618;13.488;2023-04-06T13:03:52;24.15;;;22.95;;
13849;SDS011;6995;52.618;13.488;2023-04-06T13:06:18;27.02;;;25.60;;
13849;SDS011;6995;52.618;13.488;2023-04-06T13:08:44;24.60;;;23.33;;
13849;SDS011;6995;52.618;13.488;2023-04-06T13:11:12;24.95;;;23.65;;
13849;SDS011;6995;52.618;13.488;2023-04-06T13:13:38;25.67;;;24.38;;
13849;SDS011;6995;52.618;13.488;2023-04-06T13:16:04;24.77;;;23.58;;
13849;SDS011;6995;52.618;13.488;2023-04-06T13:18:34;21.10;;;19.95;;
13849;SDS011;6995;52.618;13.488;2023-04-06T13:21:01;24.23;;;23.02;;
13849;SDS011;6995;52.618;13.488;2023-04-06T13:23:27;23.00;;;21.67;;
13849;SDS011;6995;52.618;13.488;2023-04-06T13:26:02;27.42;;;26.02;;
13849;SDS011;6995;52.618;13.488;2023-04-06T13:28:30;22.90;;;21.70;;
13849;SDS011;6995;52.618;13.488;2023-04-06T13:30:57;23.42;;;22.13;;
13849;SDS011;6995;52.618;13.488;2023-04-06T13:33:24;23.30;;;22.10;;
13849;SDS011;6995;52.618;13.488;2023-04-06T13:35:51;25.30;;;24.02;;
13849;SDS011;6995;52.618;13.488;2023-04-06T13:38:17;21.85;;;20.65;;
13849;SDS011;6995;52.618;13.488;2023-04-06T13:40:43;21.98;;;20.52;;
13849;SDS011;6995;52.618;13.488;2023-04-06T13:43:09;23.00;;;21.80;;
13849;SDS011;6995;52.618;13.488;2023-04-06T13:45:35;19.50;;;18.45;;
13849;SDS011;6995;52.618;13.488;2023-04-06T13:48:01;22.08;;;20.63;;
13849;SDS011;6995;52.618;13.488;2023-04-06T13:50:27;20.98;;;19.77;;
13849;SDS011;6995;52.618;13.488;2023-04-06T13:52:53;23.08;;;21.80;;
13849;SDS011;6995;52.618;13.488;2023-04-06T13:55:18;22.20;;;21.00;;
13849;SDS011;6995;52.618;13.488;2023-04-06T13:57:44;18.17;;;17.25;;
13849;SDS011;6995;52.618;13.488;2023-04-06T14:00:10;22.80;;;21.10;;
13849;SDS011;6995;52.618;13.488;2023-04-06T14:02:38;23.38;;;22.08;;
13849;SDS011;6995;52.618;13.488;2023-04-06T14:05:05;22.65;;;21.00;;
13849;SDS011;6995;52.618;13.488;2023-04-06T14:07:31;22.55;;;21.25;;
13849;SDS011;6995;52.618;13.488;2023-04-06T14:09:56;24.40;;;22.90;;
13849;SDS011;6995;52.618;13.488;2023-04-06T14:12:22;19.15;;;18.15;;
13849;SDS011;6995;52.618;13.488;2023-04-06T14:14:48;20.73;;;19.60;;
13849;SDS011;6995;52.618;13.488;2023-04-06T14:17:13;18.42;;;17.50;;
13849;SDS011;6995;52.618;13.488;2023-04-06T14:19:39;20.40;;;19.40;;
13849;SDS011;6995;52.618;13.488;2023-04-06T14:22:05;19.83;;;18.83;;
13849;SDS011;6995;52.618;13.488;2023-04-06T14:24:30;20.73;;;19.52;;
13849;SDS011;6995;52.618;13.488;2023-04-06T14:26:56;19.45;;;18.45;;
13849;SDS011;6995;52.618;13.488;2023-04-06T14:29:22;20.70;;;18.83;;
13849;SDS011;6995;52.618;13.488;2023-04-06T14:31:48;18.45;;;17.42;;
13849;SDS011;6995;52.618;13.488;2023-04-06T14:34:14;19.65;;;18.65;;
13849;SDS011;6995;52.618;13.488;2023-04-06T14:36:41;18.90;;;17.80;;